Time,TemperatureF,DewpointF,PressureIn,WindDirection,WindDirectionDegrees,WindSpeedMPH,WindSpeedGustMPH,Humidity,HourlyPrecipIn,Conditions,Clouds,dailyrainin,SoftwareType,DateUTC
2013-10-08 00:04:00,66.3,65.0,29.91,SSE,159,1.0,5.0,96,0.20,,,0.23,weatherlink.com 1.10,2013-10-08 04:04:00,
2013-10-08 00:20:00,66.2,65.0,29.93,West,280,0.0,3.0,96,0.11,,,0.23,weatherlink.com 1.10,2013-10-08 04:20:00,
2013-10-08 00:35:00,66.0,65.0,29.92,West,269,0.0,2.0,96,0.09,,,0.23,weatherlink.com 1.10,2013-10-08 04:35:00,
2013-10-08 00:49:00,65.8,65.0,29.93,West,274,0.0,2.0,96,0.06,,,0.23,weatherlink.com 1.10,2013-10-08 04:49:00,
2013-10-08 01:04:00,65.7,65.0,29.93,West,274,1.0,6.0,96,0.01,,,0.23,weatherlink.com 1.10,2013-10-08 05:04:00,
2013-10-08 01:20:00,65.3,64.0,29.94,West,278,1.0,8.0,96,0.01,,,0.24,weatherlink.com 1.10,2013-10-08 05:20:00,
2013-10-08 01:35:00,64.4,63.0,29.95,West,276,3.0,11.0,94,0.01,,,0.24,weatherlink.com 1.10,2013-10-08 05:35:00,
2013-10-08 01:49:00,62.8,60.0,29.96,NW,309,2.0,5.0,91,0.01,,,0.24,weatherlink.com 1.10,2013-10-08 05:49:00,
2013-10-08 02:05:00,61.7,59.0,29.97,NW,319,0.0,6.0,90,0.01,,,0.24,weatherlink.com 1.10,2013-10-08 06:05:00,
2013-10-08 02:22:00,60.8,58.0,29.97,North,353,0.0,5.0,90,0.00,,,0.24,weatherlink.com 1.10,2013-10-08 06:22:00,
2013-10-08 02:35:00,60.4,57.0,29.98,NW,323,3.0,7.0,88,0.00,,,0.24,weatherlink.com 1.10,2013-10-08 06:35:00,
2013-10-08 02:51:00,60.3,55.0,29.99,WNW,302,3.0,8.0,82,0.00,,,0.24,weatherlink.com 1.10,2013-10-08 06:51:00,
2013-10-08 03:05:00,60.4,54.0,30.00,NW,305,3.0,7.0,80,0.00,,,0.24,weatherlink.com 1.10,2013-10-08 07:05:00,
2013-10-08 03:20:00,60.6,54.0,30.00,NNW,347,2.0,7.0,78,0.00,,,0.24,weatherlink.com 1.10,2013-10-08 07:20:00,
2013-10-08 03:36:00,60.6,53.0,30.01,North,6,6.0,9.0,75,0.00,,,0.24,weatherlink.com 1.10,2013-10-08 07:36:00,
2013-10-08 03:50:00,60.9,52.0,30.01,NNW,337,1.0,10.0,72,0.00,,,0.00,weatherlink.com 1.10,2013-10-08 07:50:00,
2013-10-08 04:06:00,60.7,52.0,30.02,NW,314,2.0,8.0,74,0.00,,,0.00,weatherlink.com 1.10,2013-10-08 08:06:00,
2013-10-08 04:21:00,60.4,53.0,30.02,North,349,1.0,7.0,76,0.00,,,0.00,weatherlink.com 1.10,2013-10-08 08:21:00,
2013-10-08 04:36:00,60.0,53.0,30.03,NW,321,1.0,8.0,78,0.00,,,0.00,weatherlink.com 1.10,2013-10-08 08:36:00,
2013-10-08 04:50:00,59.7,53.0,30.03,West,279,5.0,8.0,79,0.00,,,0.00,weatherlink.com 1.10,2013-10-08 08:50:00,
2013-10-08 05:06:00,59.4,52.0,30.04,NW,326,4.0,8.0,77,0.00,,,0.00,weatherlink.com 1.10,2013-10-08 09:06:00,
2013-10-08 05:21:00,59.5,51.0,30.05,WNW,299,4.0,12.0,73,0.00,,,0.00,weatherlink.com 1.10,2013-10-08 09:21:00,
2013-10-08 05:37:00,58.9,51.0,30.06,NNW,329,2.0,8.0,74,0.00,,,0.00,weatherlink.com 1.10,2013-10-08 09:37:00,
2013-10-08 05:51:00,58.6,51.0,30.07,NW,313,3.0,8.0,76,0.00,,,0.00,weatherlink.com 1.10,2013-10-08 09:51:00,
2013-10-08 06:07:00,58.3,51.0,30.08,WNW,297,4.0,10.0,76,0.00,,,0.00,weatherlink.com 1.10,2013-10-08 10:07:00,
2013-10-08 06:21:00,58.0,50.0,30.08,NW,314,1.0,14.0,76,0.00,,,0.00,weatherlink.com 1.10,2013-10-08 10:21:00,
2013-10-08 06:37:00,57.8,50.0,30.09,West,274,2.0,7.0,75,0.00,,,0.00,weatherlink.com 1.10,2013-10-08 10:37:00,
2013-10-08 06:51:00,57.4,50.0,30.10,West,268,2.0,6.0,77,0.00,,,0.00,weatherlink.com 1.10,2013-10-08 10:51:00,
2013-10-08 07:08:00,57.6,50.0,30.12,WNW,297,10.0,10.0,75,0.00,,,0.00,weatherlink.com 1.10,2013-10-08 11:08:00,
2013-10-08 07:22:00,57.8,49.0,30.12,NNW,328,4.0,12.0,73,0.00,,,0.00,weatherlink.com 1.10,2013-10-08 11:22:00,
2013-10-08 07:38:00,57.6,49.0,30.13,NW,311,7.0,10.0,74,0.00,,,0.00,weatherlink.com 1.10,2013-10-08 11:38:00,
2013-10-08 07:52:00,57.5,50.0,30.14,NNW,343,4.0,10.0,75,0.00,,,0.00,weatherlink.com 1.10,2013-10-08 11:52:00,
2013-10-08 08:07:00,58.5,50.0,30.15,NNW,343,7.0,14.0,73,0.00,,,0.00,weatherlink.com 1.10,2013-10-08 12:07:00,
2013-10-08 08:22:00,59.1,50.0,30.16,NNW,344,4.0,10.0,73,0.00,,,0.00,weatherlink.com 1.10,2013-10-08 12:22:00,
2013-10-08 08:38:00,59.5,51.0,30.17,NNW,343,5.0,10.0,73,0.00,,,0.00,weatherlink.com 1.10,2013-10-08 12:38:00,
2013-10-08 08:52:00,60.0,50.0,30.17,NNW,335,6.0,11.0,70,0.00,,,0.00,weatherlink.com 1.10,2013-10-08 12:52:00,
2013-10-08 09:09:00,60.3,50.0,30.17,WNW,285,4.0,11.0,70,0.00,,,0.00,weatherlink.com 1.10,2013-10-08 13:09:00,
2013-10-08 09:23:00,59.7,49.0,30.18,NW,326,4.0,10.0,69,0.00,,,0.00,weatherlink.com 1.10,2013-10-08 13:23:00,
2013-10-08 09:38:00,59.1,50.0,30.18,NNE,18,5.0,8.0,72,0.00,,,0.00,weatherlink.com 1.10,2013-10-08 13:38:00,
2013-10-08 09:52:00,61.6,50.0,30.19,North,359,4.0,-999.0,67,-99.99,,,0.00,weatherlink.com 1.10,2013-10-08 13:52:00,
2013-10-08 10:08:00,61.0,49.0,30.20,NNW,331,3.0,11.0,66,0.00,,,0.00,weatherlink.com 1.10,2013-10-08 14:08:00,
2013-10-08 10:24:00,60.5,49.0,30.20,WNW,303,4.0,9.0,67,0.00,,,0.00,weatherlink.com 1.10,2013-10-08 14:24:00,
2013-10-08 10:38:00,61.6,50.0,30.20,NW,310,4.0,10.0,65,0.00,,,0.00,weatherlink.com 1.10,2013-10-08 14:38:00,
2013-10-08 10:53:00,62.2,50.0,30.19,North,360,5.0,9.0,65,0.00,,,0.00,weatherlink.com 1.10,2013-10-08 14:53:00,
2013-10-08 11:09:00,62.3,49.0,30.20,NE,39,9.0,10.0,63,0.00,,,0.00,weatherlink.com 1.10,2013-10-08 15:09:00,
2013-10-08 11:24:00,63.0,49.0,30.20,North,354,4.0,9.0,60,0.00,,,0.00,weatherlink.com 1.10,2013-10-08 15:24:00,
2013-10-08 11:40:00,63.3,49.0,30.20,NW,314,2.0,9.0,61,0.00,,,0.00,weatherlink.com 1.10,2013-10-08 15:40:00,
2013-10-08 11:54:00,64.1,51.0,30.20,North,351,2.0,11.0,62,0.00,,,0.00,weatherlink.com 1.10,2013-10-08 15:54:00,
2013-10-08 12:09:00,63.9,48.0,30.20,NNW,336,3.0,9.0,57,0.00,,,0.00,weatherlink.com 1.10,2013-10-08 16:09:00,
2013-10-08 12:25:00,64.7,47.0,30.19,North,1,2.0,8.0,54,0.00,,,0.00,weatherlink.com 1.10,2013-10-08 16:25:00,
2013-10-08 12:39:00,65.2,46.0,30.19,NNW,334,6.0,10.0,51,0.00,,,0.00,weatherlink.com 1.10,2013-10-08 16:39:00,
2013-10-08 12:54:00,65.0,48.0,30.19,NNW,345,12.0,12.0,55,0.00,,,0.00,weatherlink.com 1.10,2013-10-08 16:54:00,
2013-10-08 13:09:00,64.6,47.0,30.19,North,11,3.0,12.0,54,0.00,,,0.00,weatherlink.com 1.10,2013-10-08 17:09:00,
2013-10-08 13:25:00,64.7,47.0,30.19,NNW,342,1.0,12.0,54,0.00,,,0.00,weatherlink.com 1.10,2013-10-08 17:25:00,
2013-10-08 13:39:00,65.3,47.0,30.19,North,1,6.0,9.0,52,0.00,,,0.00,weatherlink.com 1.10,2013-10-08 17:39:00,
2013-10-08 13:55:00,65.7,47.0,30.19,NW,304,2.0,11.0,52,0.00,,,0.00,weatherlink.com 1.10,2013-10-08 17:55:00,
2013-10-08 14:10:00,65.3,45.0,30.20,NNW,337,2.0,8.0,49,0.00,,,0.00,weatherlink.com 1.10,2013-10-08 18:10:00,
2013-10-08 14:25:00,65.2,46.0,30.20,NNE,28,2.0,8.0,51,0.00,,,0.00,weatherlink.com 1.10,2013-10-08 18:25:00,
2013-10-08 14:41:00,65.7,47.0,30.20,NNW,336,5.0,8.0,51,0.00,,,0.00,weatherlink.com 1.10,2013-10-08 18:41:00,
2013-10-08 14:55:00,65.6,47.0,30.21,NNE,32,3.0,8.0,52,0.00,,,0.00,weatherlink.com 1.10,2013-10-08 18:55:00,
2013-10-08 15:11:00,65.7,51.0,30.22,NNW,328,1.0,7.0,59,0.00,,,0.00,weatherlink.com 1.10,2013-10-08 19:11:00,
2013-10-08 15:25:00,65.2,52.0,30.22,ENE,67,1.0,5.0,62,0.00,,,0.00,weatherlink.com 1.10,2013-10-08 19:25:00,
2013-10-08 15:40:00,64.7,52.0,30.22,North,360,1.0,3.0,63,0.00,,,0.00,weatherlink.com 1.10,2013-10-08 19:40:00,
2013-10-08 15:56:00,64.4,50.0,30.23,NE,54,0.0,7.0,61,0.00,,,0.00,weatherlink.com 1.10,2013-10-08 19:56:00,
2013-10-08 16:10:00,63.9,50.0,30.23,NNE,30,2.0,5.0,62,0.00,,,0.00,weatherlink.com 1.10,2013-10-08 20:10:00,
2013-10-08 16:25:00,63.4,51.0,30.23,NNW,330,2.0,6.0,64,0.00,,,0.00,weatherlink.com 1.10,2013-10-08 20:25:00,
2013-10-08 16:40:00,62.6,50.0,30.24,North,1,1.0,5.0,64,0.00,,,0.00,weatherlink.com 1.10,2013-10-08 20:40:00,
2013-10-08 16:55:00,61.8,49.0,30.25,NNE,23,3.0,5.0,64,0.00,,,0.00,weatherlink.com 1.10,2013-10-08 20:55:00,
2013-10-08 17:10:00,61.1,50.0,30.25,NNE,26,0.0,4.0,66,0.00,,,0.00,weatherlink.com 1.10,2013-10-08 21:10:00,
2013-10-08 17:25:00,60.5,50.0,30.25,North,1,1.0,3.0,69,0.00,,,0.00,weatherlink.com 1.10,2013-10-08 21:25:00,
2013-10-08 17:40:00,59.4,50.0,30.26,North,4,0.0,3.0,72,0.00,,,0.00,weatherlink.com 1.10,2013-10-08 21:40:00,
2013-10-08 17:55:00,58.3,50.0,30.26,North,1,0.0,2.0,75,0.00,,,0.00,weatherlink.com 1.10,2013-10-08 21:55:00,
2013-10-08 18:25:00,55.7,50.0,30.27,North,3,0.0,2.0,80,0.00,,,0.00,weatherlink.com 1.10,2013-10-08 22:25:00,
2013-10-08 18:41:00,55.1,50.0,30.27,North,357,0.0,3.0,82,0.00,,,0.00,weatherlink.com 1.10,2013-10-08 22:41:00,
2013-10-08 18:56:00,54.2,50.0,30.28,North,357,0.0,0.0,85,0.00,,,0.00,weatherlink.com 1.10,2013-10-08 22:56:00,
2013-10-08 19:26:00,51.4,48.0,30.30,NW,324,0.0,1.0,89,0.00,,,0.00,weatherlink.com 1.10,2013-10-08 23:26:00,
2013-10-08 19:56:00,50.9,48.0,30.31,North,356,0.0,1.0,90,0.00,,,0.00,weatherlink.com 1.10,2013-10-08 23:56:00,
2013-10-08 20:11:00,50.3,48.0,30.31,North,356,0.0,1.0,91,0.00,,,0.00,weatherlink.com 1.10,2013-10-09 00:11:00,
2013-10-08 20:26:00,49.7,47.0,30.31,North,356,0.0,1.0,91,0.00,,,0.00,weatherlink.com 1.10,2013-10-09 00:26:00,
2013-10-08 20:41:00,49.2,47.0,30.32,North,356,0.0,0.0,92,0.00,,,0.00,weatherlink.com 1.10,2013-10-09 00:41:00,
2013-10-08 20:56:00,48.7,47.0,30.33,North,356,0.0,1.0,92,0.00,,,0.00,weatherlink.com 1.10,2013-10-09 00:56:00,
2013-10-08 21:11:00,48.5,47.0,30.33,North,356,0.0,1.0,93,0.00,,,0.00,weatherlink.com 1.10,2013-10-09 01:11:00,
2013-10-08 21:27:00,48.5,47.0,30.33,North,356,0.0,1.0,93,0.00,,,0.00,weatherlink.com 1.10,2013-10-09 01:27:00,
2013-10-08 21:41:00,48.2,46.0,30.33,North,356,0.0,1.0,93,0.00,,,0.00,weatherlink.com 1.10,2013-10-09 01:41:00,
2013-10-08 21:57:00,48.1,47.0,30.34,North,349,0.0,1.0,94,0.00,,,0.00,weatherlink.com 1.10,2013-10-09 01:57:00,
2013-10-08 22:12:00,47.8,46.0,30.34,North,349,0.0,1.0,94,0.00,,,0.00,weatherlink.com 1.10,2013-10-09 02:12:00,
2013-10-08 22:26:00,47.6,46.0,30.35,North,349,0.0,1.0,94,0.00,,,0.00,weatherlink.com 1.10,2013-10-09 02:26:00,
2013-10-08 22:42:00,47.4,46.0,30.35,North,349,0.0,1.0,94,0.00,,,0.00,weatherlink.com 1.10,2013-10-09 02:42:00,
2013-10-08 22:58:00,47.2,46.0,30.35,NNW,342,1.0,3.0,94,0.00,,,0.00,weatherlink.com 1.10,2013-10-09 02:58:00,
2013-10-08 23:12:00,47.4,46.0,30.35,NNW,346,0.0,1.0,94,0.00,,,0.00,weatherlink.com 1.10,2013-10-09 03:12:00,
2013-10-08 23:28:00,47.5,46.0,30.35,NNE,24,0.0,2.0,95,0.00,,,0.00,weatherlink.com 1.10,2013-10-09 03:28:00,
2013-10-08 23:42:00,47.4,46.0,30.35,NNE,24,0.0,0.0,94,0.00,,,0.00,weatherlink.com 1.10,2013-10-09 03:42:00,
2013-10-08 23:58:00,46.9,45.0,30.35,NNE,24,0.0,1.0,94,0.00,,,0.00,weatherlink.com 1.10,2013-10-09 03:58:00,